createdAt,value
2018-04-27T00:01:04.009Z,7.92
2018-04-27T00:03:31.594Z,7.90
2018-04-27T00:05:59.141Z,7.84
2018-04-27T00:08:26.741Z,7.85
2018-04-27T00:10:54.329Z,7.76
2018-04-27T00:13:21.864Z,7.75
2018-04-27T00:15:49.393Z,7.69
2018-04-27T00:18:16.933Z,7.75
2018-04-27T00:20:44.470Z,7.77
2018-04-27T00:23:11.996Z,7.72
2018-04-27T00:25:39.521Z,7.57
2018-04-27T00:28:07.192Z,7.58
2018-04-27T00:30:34.708Z,7.51
2018-04-27T00:33:02.239Z,7.51
2018-04-27T00:35:29.789Z,7.55
2018-04-27T00:37:57.319Z,7.56
2018-04-27T00:40:24.954Z,7.55
2018-04-27T00:42:52.525Z,7.53
2018-04-27T00:45:20.041Z,7.50
2018-04-27T00:47:47.561Z,7.44
2018-04-27T00:50:15.189Z,7.50
2018-04-27T00:52:54.633Z,7.46
2018-04-27T00:55:22.180Z,7.43
2018-04-27T00:57:49.741Z,7.34
2018-04-27T01:00:17.264Z,7.32
2018-04-27T01:02:44.816Z,7.26
2018-04-27T01:05:12.350Z,7.22
2018-04-27T01:07:39.952Z,7.21
2018-04-27T01:10:07.695Z,7.20
2018-04-27T01:12:35.250Z,7.13
2018-04-27T01:15:02.784Z,7.07
2018-04-27T01:17:30.335Z,7.06
2018-04-27T01:19:57.896Z,7.02
2018-04-27T01:22:25.489Z,6.93
2018-04-27T01:24:53.070Z,6.85
2018-04-27T01:27:20.610Z,6.94
2018-04-27T01:29:48.155Z,6.96
2018-04-27T01:32:15.857Z,6.95
2018-04-27T01:40:32.875Z,6.92
2018-04-27T01:43:22.198Z,6.80
2018-04-27T01:54:25.180Z,6.78
2018-04-27T02:53:57.208Z,6.00
2018-04-27T02:59:15.336Z,6.13
2018-04-27T03:04:33.550Z,6.21
2018-04-27T03:29:30.062Z,6.08
2018-04-27T03:31:57.570Z,6.03
2018-04-27T03:34:25.126Z,5.94
2018-04-27T03:36:52.667Z,5.85
2018-04-27T03:39:20.197Z,5.80
2018-04-27T03:41:47.715Z,5.72
2018-04-27T03:44:15.334Z,5.71
2018-04-27T03:46:42.855Z,5.70
2018-04-27T03:49:10.401Z,5.76
2018-04-27T03:51:37.922Z,5.59
2018-04-27T03:54:05.446Z,5.63
2018-04-27T03:56:32.970Z,5.62
2018-04-27T03:59:00.491Z,5.70
2018-04-27T04:01:39.870Z,5.65
2018-04-27T04:07:06.448Z,5.50
2018-04-27T04:09:34.177Z,5.53
2018-04-27T04:12:01.834Z,5.55
2018-04-27T04:14:29.343Z,5.52
2018-04-27T04:16:56.856Z,5.51
2018-04-27T04:19:24.356Z,5.55
2018-04-27T04:21:51.870Z,5.66
2018-04-27T04:24:19.404Z,5.71
2018-04-27T04:26:46.899Z,5.74
2018-04-27T04:29:14.437Z,5.78
2018-04-27T04:31:42.101Z,5.80
2018-04-27T04:34:09.641Z,5.92
2018-04-27T04:36:37.179Z,6.00
2018-04-27T04:39:04.713Z,6.26
2018-04-27T04:41:32.233Z,6.28
2018-04-27T04:43:59.754Z,6.39
2018-04-27T04:46:27.268Z,6.50
2018-04-27T04:48:54.777Z,6.43
2018-04-27T04:51:22.314Z,6.37
2018-04-27T04:53:49.932Z,6.60
2018-04-27T04:56:17.442Z,6.81
2018-04-27T04:58:44.967Z,6.88
2018-04-27T05:01:12.638Z,7.02
2018-04-27T05:03:40.175Z,7.09
2018-04-27T05:06:07.668Z,7.27
2018-04-27T05:08:35.269Z,7.25
2018-04-27T05:11:02.812Z,7.40
2018-04-27T05:13:30.320Z,7.66
2018-04-27T05:15:58.133Z,7.81
2018-04-27T05:21:19.918Z,8.09
2018-04-27T05:23:47.433Z,8.49
2018-04-27T05:26:15.027Z,8.94
2018-04-27T05:28:42.537Z,8.73
2018-04-27T05:31:22.091Z,8.36
2018-04-27T05:33:49.606Z,8.13
2018-04-27T05:36:17.155Z,7.88
2018-04-27T05:38:44.843Z,7.98
2018-04-27T05:41:12.379Z,7.85
2018-04-27T05:43:39.920Z,7.87
2018-04-27T05:46:07.520Z,7.90
2018-04-27T05:48:35.109Z,7.90
2018-04-27T05:51:02.654Z,7.89
2018-04-27T05:53:30.184Z,8.23
2018-04-27T05:55:58.310Z,8.20
2018-04-27T05:58:25.816Z,8.51
2018-04-27T06:00:53.325Z,8.53
2018-04-27T06:03:20.994Z,8.97
2018-04-27T06:05:48.685Z,9.09
2018-04-27T06:08:16.229Z,8.92
2018-04-27T06:10:43.812Z,8.70
2018-04-27T06:13:11.338Z,8.79
2018-04-27T06:15:38.872Z,9.26
2018-04-27T06:18:06.476Z,9.52
2018-04-27T06:20:34.044Z,9.69
2018-04-27T06:23:01.722Z,9.90
2018-04-27T06:25:29.228Z,10.11
2018-04-27T06:27:56.761Z,10.26
2018-04-27T06:30:24.302Z,10.25
2018-04-27T06:32:51.940Z,10.13
2018-04-27T06:35:19.474Z,10.50
2018-04-27T06:37:47.025Z,10.76
2018-04-27T06:40:14.520Z,10.96
2018-04-27T06:42:42.018Z,11.01
2018-04-27T06:45:09.526Z,11.22
2018-04-27T06:47:37.051Z,11.32
2018-04-27T06:50:04.559Z,11.28
2018-04-27T06:52:32.106Z,11.71
2018-04-27T06:55:00.623Z,11.76
2018-04-27T06:57:28.145Z,11.80
2018-04-27T06:59:55.677Z,11.79
2018-04-27T07:02:24.673Z,11.91
2018-04-27T07:04:52.561Z,11.83
2018-04-27T07:07:20.099Z,12.21
2018-04-27T07:09:47.611Z,12.47
2018-04-27T07:12:15.141Z,12.30
2018-04-27T07:14:42.660Z,12.57
2018-04-27T07:17:10.203Z,12.52
2018-04-27T07:19:37.761Z,12.58
2018-04-27T07:22:05.259Z,12.77
2018-04-27T07:24:32.757Z,13.51
2018-04-27T07:27:00.260Z,13.77
2018-04-27T07:29:27.874Z,13.65
2018-04-27T07:31:55.380Z,13.74
2018-04-27T07:34:22.909Z,14.11
2018-04-27T07:36:50.463Z,14.14
2018-04-27T07:39:17.972Z,14.48
2018-04-27T07:41:45.506Z,14.49
2018-04-27T07:44:13.009Z,14.73
2018-04-27T07:46:40.631Z,14.97
2018-04-27T07:49:08.189Z,15.09
2018-04-27T07:51:35.726Z,15.64
2018-04-27T07:54:03.241Z,15.69
2018-04-27T07:56:30.853Z,15.55
2018-04-27T07:58:58.395Z,15.17
2018-04-27T08:01:25.925Z,15.68
2018-04-27T08:03:53.514Z,15.88
2018-04-27T08:08:54.830Z,16.03
2018-04-27T08:11:22.404Z,16.29
2018-04-27T08:13:50.112Z,16.32
2018-04-27T08:16:17.741Z,16.45
2018-04-27T08:18:45.258Z,16.59
2018-04-27T08:21:12.787Z,16.67
2018-04-27T08:23:40.401Z,16.81
2018-04-27T08:26:07.950Z,17.07
2018-04-27T08:28:35.536Z,17.16
2018-04-27T08:31:03.056Z,17.48
2018-04-27T08:33:30.560Z,17.55
2018-04-27T08:35:58.114Z,17.10
2018-04-27T08:38:25.669Z,17.20
2018-04-27T08:40:53.203Z,17.38
2018-04-27T08:43:20.723Z,17.57
2018-04-27T08:45:48.233Z,17.60
2018-04-27T08:48:15.729Z,17.85
2018-04-27T08:50:43.215Z,18.30
2018-04-27T08:53:10.743Z,18.26
2018-04-27T08:55:38.277Z,18.40
2018-04-27T08:58:10.255Z,18.36
2018-04-27T09:00:37.787Z,18.26
2018-04-27T09:03:05.337Z,18.58
2018-04-27T09:05:32.931Z,18.46
2018-04-27T09:08:00.434Z,18.71
2018-04-27T09:10:27.963Z,18.78
2018-04-27T09:12:55.476Z,18.62
2018-04-27T09:15:23.052Z,18.70
2018-04-27T09:17:50.618Z,18.87
2018-04-27T09:20:18.145Z,19.15
2018-04-27T09:22:45.656Z,19.23
2018-04-27T09:25:13.310Z,19.38
2018-04-27T09:27:40.805Z,19.50
2018-04-27T09:30:08.314Z,19.61
2018-04-27T09:32:35.925Z,19.71
2018-04-27T09:35:03.441Z,19.16
2018-04-27T09:37:30.964Z,19.59
2018-04-27T09:39:58.481Z,20.01
2018-04-27T09:42:26.023Z,19.76
2018-04-27T09:44:53.639Z,19.76
2018-04-27T09:47:21.162Z,19.91
2018-04-27T09:49:48.696Z,20.02
2018-04-27T09:52:16.378Z,20.00
2018-04-27T09:54:43.899Z,20.37
2018-04-27T09:57:11.394Z,20.08
2018-04-27T09:59:38.932Z,20.52
2018-04-27T10:02:06.438Z,20.54
2018-04-27T10:04:33.978Z,20.11
2018-04-27T10:07:01.503Z,20.17
2018-04-27T10:09:29.031Z,20.51
2018-04-27T10:11:56.555Z,20.28
2018-04-27T10:14:24.056Z,20.50
2018-04-27T10:16:51.580Z,20.71
2018-04-27T10:19:19.286Z,20.88
2018-04-27T10:21:46.809Z,20.96
2018-04-27T10:24:14.336Z,21.06
2018-04-27T10:26:41.857Z,21.30
2018-04-27T10:29:09.376Z,21.67
2018-04-27T10:31:36.918Z,21.67
2018-04-27T10:34:04.529Z,21.31
2018-04-27T10:36:32.124Z,21.38
2018-04-27T10:38:59.666Z,21.65
2018-04-27T10:41:27.187Z,21.71
2018-04-27T10:43:54.712Z,21.52
2018-04-27T10:46:24.773Z,21.86
2018-04-27T10:48:52.305Z,22.07
2018-04-27T10:51:19.869Z,22.05
2018-04-27T10:53:47.524Z,21.29
2018-04-27T10:56:15.065Z,21.30
2018-04-27T10:58:44.396Z,21.79
2018-04-27T11:01:12.043Z,21.54
2018-04-27T11:03:39.785Z,21.85
2018-04-27T11:06:07.295Z,21.92
2018-04-27T11:08:34.861Z,22.27
2018-04-27T11:11:02.420Z,22.44
2018-04-27T11:16:02.702Z,22.67
2018-04-27T11:18:45.544Z,22.34
2018-04-27T11:21:17.729Z,22.60
2018-04-27T11:23:50.287Z,23.12
2018-04-27T11:29:13.996Z,23.43
2018-04-27T11:40:25.901Z,28.79
2018-04-27T11:42:58.510Z,29.26
2018-04-27T12:08:35.082Z,34.85
2018-04-27T12:11:02.639Z,36.25
2018-04-27T12:13:30.229Z,37.06
2018-04-27T12:15:57.821Z,36.54
2018-04-27T12:18:25.401Z,35.94
2018-04-27T12:20:52.945Z,36.20
2018-04-27T12:23:20.519Z,36.57
2018-04-27T12:25:48.090Z,36.68
2018-04-27T12:28:15.583Z,37.47
2018-04-27T12:30:43.197Z,37.57
2018-04-27T12:33:10.806Z,39.23
2018-04-27T12:35:38.347Z,39.47
2018-04-27T12:38:05.884Z,39.79
2018-04-27T12:40:33.439Z,39.49
2018-04-27T12:43:00.925Z,40.06
2018-04-27T12:45:28.499Z,39.63
2018-04-27T12:47:56.120Z,40.09
2018-04-27T12:50:23.704Z,40.56
2018-04-27T12:52:51.291Z,41.13
2018-04-27T12:55:18.919Z,40.61
2018-04-27T12:57:46.563Z,40.37
2018-04-27T13:00:14.253Z,42.82
2018-04-27T13:02:41.969Z,42.63
2018-04-27T13:05:09.738Z,43.19
2018-04-27T13:07:37.253Z,44.53
2018-04-27T13:10:04.820Z,43.82
2018-04-27T13:12:32.351Z,43.02
2018-04-27T13:14:59.890Z,41.33
2018-04-27T13:17:28.567Z,41.22
2018-04-27T13:19:56.228Z,41.38
2018-04-27T13:22:23.743Z,40.66
2018-04-27T13:24:51.270Z,39.65
2018-04-27T13:27:18.944Z,41.07
2018-04-27T13:29:46.525Z,40.94
2018-04-27T13:32:14.059Z,41.11
2018-04-27T13:34:41.638Z,42.54
2018-04-27T13:37:09.155Z,41.58
2018-04-27T13:39:36.746Z,42.21
2018-04-27T13:42:04.243Z,41.58
2018-04-27T13:44:31.772Z,43.43
2018-04-27T13:46:59.313Z,42.07
2018-04-27T13:49:26.947Z,42.39
2018-04-27T13:51:54.548Z,42.14
2018-04-27T13:54:22.112Z,43.02
2018-04-27T13:56:49.871Z,43.82
2018-04-27T13:59:17.422Z,44.16
2018-04-27T14:01:44.953Z,42.15
2018-04-27T14:04:12.464Z,42.64
2018-04-27T14:06:40.044Z,42.44
2018-04-27T14:09:07.680Z,42.24
2018-04-27T14:11:35.336Z,43.38
2018-04-27T14:14:02.868Z,41.86
2018-04-27T14:16:30.537Z,43.23
2018-04-27T14:18:58.057Z,42.01
2018-04-27T14:21:25.669Z,43.38
2018-04-27T14:23:53.138Z,41.79
2018-04-27T14:26:20.674Z,42.49
2018-04-27T14:28:48.217Z,40.29
2018-04-27T14:31:15.807Z,41.41
2018-04-27T14:33:43.394Z,41.20
2018-04-27T14:36:10.924Z,39.90
2018-04-27T14:38:38.480Z,40.95
2018-04-27T14:41:06.091Z,42.04
2018-04-27T14:43:33.595Z,40.52
2018-04-27T14:46:01.079Z,41.80
2018-04-27T14:48:28.802Z,43.16
2018-04-27T14:50:56.305Z,41.82
2018-04-27T14:53:23.848Z,41.26
2018-04-27T14:55:51.338Z,42.45
2018-04-27T14:58:18.901Z,42.46
2018-04-27T15:00:46.508Z,43.53
2018-04-27T15:03:14.040Z,42.66
2018-04-27T15:05:41.947Z,43.44
2018-04-27T15:08:09.676Z,44.06
2018-04-27T15:10:37.497Z,43.24
2018-04-27T15:13:04.989Z,42.21
2018-04-27T15:15:32.486Z,41.08
2018-04-27T15:18:00.076Z,43.13
2018-04-27T15:20:28.256Z,43.15
2018-04-27T15:22:55.770Z,42.51
2018-04-27T15:25:23.812Z,42.31
2018-04-27T15:27:51.732Z,42.99
2018-04-27T15:30:19.239Z,42.58
2018-04-27T15:32:46.771Z,42.58
2018-04-27T15:35:14.300Z,42.64
2018-04-27T15:37:41.809Z,40.01
2018-04-27T15:40:09.477Z,41.99
2018-04-27T15:42:37.106Z,39.53
2018-04-27T15:45:04.794Z,37.95
2018-04-27T15:47:32.611Z,37.51
2018-04-27T15:50:00.229Z,37.45
2018-04-27T15:52:29.323Z,35.94
2018-04-27T15:54:57.102Z,34.83
2018-04-27T15:57:24.689Z,36.88
2018-04-27T15:59:52.227Z,36.92
2018-04-27T16:02:19.828Z,37.26
2018-04-27T16:04:47.354Z,35.31
2018-04-27T16:07:15.052Z,34.98
2018-04-27T16:09:42.782Z,34.07
2018-04-27T16:12:10.484Z,33.83
2018-04-27T16:14:38.221Z,33.96
2018-04-27T16:17:05.763Z,32.08
2018-04-27T16:19:33.571Z,32.14
2018-04-27T16:22:01.432Z,31.44
2018-04-27T16:24:29.130Z,31.78
2018-04-27T16:26:56.763Z,29.51
2018-04-27T16:29:24.506Z,29.69
2018-04-27T16:31:52.589Z,29.19
2018-04-27T16:34:20.268Z,28.92
2018-04-27T16:36:47.768Z,28.64
2018-04-27T16:39:15.317Z,28.21
2018-04-27T16:41:42.880Z,28.78
2018-04-27T16:44:10.415Z,29.52
2018-04-27T16:46:37.996Z,29.81
2018-04-27T16:49:05.464Z,29.70
2018-04-27T16:51:33.047Z,29.52
2018-04-27T16:54:00.952Z,28.92
2018-04-27T16:56:28.479Z,28.75
2018-04-27T16:58:56.033Z,28.09
2018-04-27T17:01:23.672Z,27.63
2018-04-27T17:03:51.410Z,28.86
2018-04-27T17:06:18.929Z,30.09
2018-04-27T17:08:46.450Z,29.83
2018-04-27T17:11:14.104Z,29.66
2018-04-27T17:13:41.666Z,29.85
2018-04-27T17:16:09.217Z,28.64
2018-04-27T17:18:36.767Z,28.23
2018-04-27T17:21:04.273Z,27.52
2018-04-27T17:23:31.785Z,27.54
2018-04-27T17:25:59.305Z,27.31
2018-04-27T17:28:26.838Z,26.20
2018-04-27T17:30:54.415Z,25.93
2018-04-27T17:33:22.020Z,25.62
2018-04-27T17:35:49.771Z,24.93
2018-04-27T17:38:17.338Z,24.56
2018-04-27T17:40:44.885Z,24.25
2018-04-27T17:43:12.414Z,23.78
2018-04-27T17:45:39.929Z,23.53
2018-04-27T17:48:07.482Z,23.14
2018-04-27T17:50:34.970Z,22.75
2018-04-27T17:53:02.587Z,22.54
2018-04-27T17:55:30.099Z,22.27
2018-04-27T17:57:57.652Z,21.99
2018-04-27T18:00:25.204Z,21.76
2018-04-27T18:02:52.743Z,21.72
2018-04-27T18:05:20.254Z,21.43
2018-04-27T18:07:47.761Z,21.39
2018-04-27T18:10:15.283Z,21.14
2018-04-27T18:12:42.905Z,20.85
2018-04-27T18:15:10.401Z,20.94
2018-04-27T18:17:38.064Z,20.83
2018-04-27T18:20:05.678Z,20.54
2018-04-27T18:22:33.258Z,20.33
2018-04-27T18:25:00.770Z,20.25
2018-04-27T18:27:28.279Z,20.18
2018-04-27T18:29:55.989Z,20.04
2018-04-27T18:32:23.646Z,19.79
2018-04-27T18:34:51.204Z,19.89
2018-04-27T18:37:18.746Z,19.95
2018-04-27T18:39:46.317Z,19.96
2018-04-27T18:42:13.905Z,20.06
2018-04-27T18:44:41.814Z,20.17
2018-04-27T18:47:09.294Z,20.15
2018-04-27T18:49:36.936Z,20.08
2018-04-27T18:52:04.465Z,19.98
2018-04-27T18:54:32.029Z,19.90
2018-04-27T19:00:03.779Z,19.66
2018-04-27T19:02:31.386Z,19.51
2018-04-27T19:04:58.915Z,19.38
2018-04-27T19:07:27.095Z,19.36
2018-04-27T19:09:54.960Z,19.27
2018-04-27T19:12:24.916Z,19.17
2018-04-27T19:14:52.495Z,19.16
2018-04-27T19:17:19.996Z,19.17
2018-04-27T19:19:47.572Z,19.12
2018-04-27T19:22:20.725Z,19.07
2018-04-27T19:24:48.236Z,18.95
2018-04-27T19:27:15.756Z,18.80
2018-04-27T19:29:43.524Z,18.58
2018-04-27T19:32:12.160Z,18.35
2018-04-27T19:34:40.060Z,18.12
2018-04-27T19:37:07.692Z,17.94
2018-04-27T19:39:35.287Z,17.81
2018-04-27T19:42:02.831Z,17.66
2018-04-27T19:44:30.431Z,17.57
2018-04-27T19:46:57.984Z,17.58
2018-04-27T19:49:25.595Z,17.51
2018-04-27T19:51:53.144Z,17.46
2018-04-27T19:54:20.730Z,17.43
2018-04-27T19:56:48.259Z,17.33
2018-04-27T19:59:15.859Z,17.50
2018-04-27T20:01:43.472Z,17.65
2018-04-27T20:04:11.041Z,17.62
2018-04-27T20:06:38.621Z,17.50
2018-04-27T20:09:06.301Z,17.38
2018-04-27T20:11:33.833Z,17.30
2018-04-27T20:14:01.626Z,17.34
2018-04-27T20:16:38.284Z,17.23
2018-04-27T20:19:07.302Z,17.30
2018-04-27T20:21:34.926Z,17.38
2018-04-27T20:24:07.599Z,17.26
2018-04-27T20:26:35.179Z,17.22
2018-04-27T20:29:02.723Z,17.18
2018-04-27T20:31:30.288Z,17.27
2018-04-27T20:33:57.969Z,17.30
2018-04-27T20:36:25.511Z,17.10
2018-04-27T20:38:53.071Z,17.09
2018-04-27T20:41:20.676Z,17.27
2018-04-27T20:43:49.049Z,17.47
2018-04-27T20:46:20.457Z,17.75
2018-04-27T20:48:48.010Z,17.86
2018-04-27T20:51:15.710Z,17.88
2018-04-27T20:53:58.180Z,17.96
2018-04-27T20:56:25.773Z,17.94
2018-04-27T20:58:53.438Z,18.02
2018-04-27T21:01:21.060Z,18.06
2018-04-27T21:03:48.569Z,18.05
2018-04-27T21:06:16.853Z,18.03
2018-04-27T21:08:44.383Z,17.97
2018-04-27T21:11:11.914Z,17.93
2018-04-27T21:13:42.449Z,17.87
2018-04-27T21:16:10.025Z,17.78
2018-04-27T21:18:37.565Z,17.69
2018-04-27T21:21:05.080Z,17.80
2018-04-27T21:23:32.635Z,17.80
2018-04-27T21:26:00.168Z,17.64
2018-04-27T21:28:46.526Z,17.56
2018-04-27T21:31:14.073Z,17.45
2018-04-27T21:33:42.426Z,17.28
2018-04-27T21:36:09.967Z,17.37
2018-04-27T21:38:46.746Z,17.23
2018-04-27T21:41:14.992Z,17.16
2018-04-27T21:43:42.519Z,17.16
2018-04-27T21:46:10.069Z,17.22
2018-04-27T21:48:37.573Z,17.28
2018-04-27T21:51:05.131Z,17.23
2018-04-27T21:53:32.764Z,17.13
2018-04-27T21:56:00.276Z,17.16
2018-04-27T21:58:27.802Z,17.11
2018-04-27T22:00:55.401Z,17.03
2018-04-27T22:03:23.853Z,16.88
2018-04-27T22:06:16.336Z,16.77
2018-04-27T22:08:55.235Z,16.43
2018-04-27T22:11:24.648Z,16.15
2018-04-27T22:13:54.103Z,16.10
2018-04-27T22:16:24.240Z,16.01
2018-04-27T22:18:51.877Z,16.00
2018-04-27T22:21:19.495Z,15.88
2018-04-27T22:23:47.078Z,15.79
2018-04-27T22:26:17.324Z,15.61
2018-04-27T22:28:50.891Z,15.51
2018-04-27T22:31:20.203Z,15.36
2018-04-27T22:33:47.826Z,15.32
2018-04-27T22:39:28.378Z,15.45
2018-04-27T22:41:56.109Z,15.40
2018-04-27T22:44:26.714Z,15.42
2018-04-27T22:46:54.244Z,15.34
2018-04-27T22:49:21.793Z,15.26
2018-04-27T22:51:49.331Z,15.22
2018-04-27T22:57:29.137Z,15.82
2018-04-27T23:00:04.582Z,15.95
2018-04-27T23:02:32.168Z,16.14
2018-04-27T23:05:01.268Z,16.27
2018-04-27T23:07:41.337Z,16.28
2018-04-27T23:10:08.910Z,16.31
2018-04-27T23:12:39.324Z,16.35
2018-04-27T23:15:06.851Z,16.35
2018-04-27T23:17:34.428Z,16.35
2018-04-27T23:20:22.602Z,16.35
2018-04-27T23:22:52.931Z,16.32
2018-04-27T23:25:21.240Z,16.31
2018-04-27T23:27:48.764Z,16.18
2018-04-27T23:30:23.150Z,16.18
2018-04-27T23:32:50.658Z,16.05
2018-04-27T23:35:19.035Z,16.00
2018-04-27T23:37:46.562Z,15.97
2018-04-27T23:40:14.104Z,15.96
2018-04-27T23:42:42.415Z,15.90
2018-04-27T23:45:10.597Z,15.91
2018-04-27T23:47:38.169Z,15.89
2018-04-27T23:50:05.689Z,15.95
2018-04-27T23:52:33.268Z,15.91
2018-04-27T23:55:00.803Z,15.81
2018-04-27T23:57:28.372Z,15.93
2018-04-27T23:59:58.678Z,15.89
